Time;durP1;ratioP1;P1;durP2;ratioP2;P2;SDS_P1;SDS_P2;PMS_P1;PMS_P2;Temp;Humidity;BMP_temperature;BMP_pressure;BME280_temperature;BME280_humidity;BME280_pressure;Samples;Min_cycle;Max_cycle;Signal;HPM_P1;HPM_P2
2019/04/13 00:01:21;;;;;;;23.9;19.45;;;;;;;4.55;54.41113;95372.66;;;;
2019/04/13 00:02:26;;;;;;;23.9;19.45;;;;;;;4.55;54.41113;95372.66;;;;
2019/04/13 00:03:28;;;;;;;23.9;19.45;;;;;;;4.55;54.41113;95372.66;;;;
2019/04/13 00:05:07;;;;;;;23.9;19.45;;;;;;;4.55;54.41113;95372.66;;;;
2019/04/13 00:06:13;;;;;;;23.9;19.45;;;;;;;4.55;54.41113;95372.66;;;;
2019/04/13 00:07:14;;;;;;;23.9;19.45;;;;;;;4.55;54.41113;95372.66;;;;
2019/04/13 00:08:18;;;;;;;23.9;19.45;;;;;;;4.55;54.41113;95372.66;;;;
2019/04/13 00:09:19;;;;;;;23.9;19.45;;;;;;;4.55;54.41113;95372.66;;;;
2019/04/13 00:10:33;;;;;;;23.95;19.6;;;;;;;4.5;54.5332;95359.59;;;;
2019/04/13 00:11:42;;;;;;;23.95;19.6;;;;;;;4.5;54.5332;95359.59;;;;
2019/04/13 00:12:43;;;;;;;23.95;19.6;;;;;;;4.5;54.5332;95359.59;;;;
2019/04/13 00:13:45;;;;;;;23.95;19.6;;;;;;;4.5;54.5332;95359.59;;;;
2019/04/13 00:14:46;;;;;;;23.95;19.6;;;;;;;4.5;54.5332;95359.59;;;;
2019/04/13 00:15:47;;;;;;;23.95;19.6;;;;;;;4.5;54.5332;95359.59;;;;
2019/04/13 00:16:48;;;;;;;23.95;19.6;;;;;;;4.5;54.5332;95359.59;;;;
2019/04/13 00:17:49;;;;;;;23.95;19.6;;;;;;;4.5;54.5332;95359.59;;;;
2019/04/13 00:18:51;;;;;;;23.95;19.6;;;;;;;4.5;54.5332;95359.59;;;;
2019/04/13 00:19:52;;;;;;;23.95;19.6;;;;;;;4.5;54.5332;95359.59;;;;
2019/04/13 00:20:53;;;;;;;23.9;19.6;;;;;;;4.42;54.73438;95339.69;;;;
2019/04/13 00:21:54;;;;;;;23.9;19.6;;;;;;;4.42;54.73438;95339.69;;;;
2019/04/13 00:22:55;;;;;;;23.9;19.6;;;;;;;4.42;54.73438;95339.69;;;;
2019/04/13 00:23:56;;;;;;;23.9;19.6;;;;;;;4.42;54.73438;95339.69;;;;
2019/04/13 00:24:58;;;;;;;23.9;19.6;;;;;;;4.42;54.73438;95339.69;;;;
2019/04/13 00:25:59;;;;;;;23.9;19.6;;;;;;;4.42;54.73438;95339.69;;;;
2019/04/13 00:27:00;;;;;;;23.9;19.6;;;;;;;4.42;54.73438;95339.69;;;;
2019/04/13 00:28:01;;;;;;;23.9;19.6;;;;;;;4.42;54.73438;95339.69;;;;
2019/04/13 00:29:02;;;;;;;23.9;19.6;;;;;;;4.42;54.73438;95339.69;;;;
2019/04/13 00:30:03;;;;;;;23.9;19.6;;;;;;;4.42;54.73438;95339.69;;;;
2019/04/13 00:31:05;;;;;;;23.9;19.6;;;;;;;4.42;54.73438;95339.69;;;;
2019/04/13 00:32:06;;;;;;;24.8;19.75;;;;;;;4.33;54.90332;95337.28;;;;
2019/04/13 00:33:07;;;;;;;24.8;19.75;;;;;;;4.33;54.90332;95337.28;;;;
2019/04/13 00:34:08;;;;;;;24.8;19.75;;;;;;;4.33;54.90332;95337.28;;;;
2019/04/13 00:35:09;;;;;;;24.8;19.75;;;;;;;4.33;54.90332;95337.28;;;;
2019/04/13 00:36:11;;;;;;;24.8;19.75;;;;;;;4.33;54.90332;95337.28;;;;
2019/04/13 00:37:12;;;;;;;24.8;19.75;;;;;;;4.33;54.90332;95337.28;;;;
2019/04/13 00:38:13;;;;;;;24.8;19.75;;;;;;;4.33;54.90332;95337.28;;;;
2019/04/13 00:39:14;;;;;;;24.8;19.75;;;;;;;4.33;54.90332;95337.28;;;;
2019/04/13 00:40:15;;;;;;;24.8;19.75;;;;;;;4.33;54.90332;95337.28;;;;
2019/04/13 00:41:16;;;;;;;24.8;19.75;;;;;;;4.33;54.90332;95337.28;;;;
2019/04/13 00:42:18;;;;;;;26.75;19.35;;;;;;;4.25;55.07422;95341.42;;;;
2019/04/13 00:43:19;;;;;;;26.75;19.35;;;;;;;4.25;55.07422;95341.42;;;;
2019/04/13 00:44:20;;;;;;;26.75;19.35;;;;;;;4.25;55.07422;95341.42;;;;
2019/04/13 00:45:21;;;;;;;26.75;19.35;;;;;;;4.25;55.07422;95341.42;;;;
2019/04/13 00:46:22;;;;;;;26.75;19.35;;;;;;;4.25;55.07422;95341.42;;;;
2019/04/13 00:47:23;;;;;;;26.75;19.35;;;;;;;4.25;55.07422;95341.42;;;;
2019/04/13 00:48:25;;;;;;;26.75;19.35;;;;;;;4.25;55.07422;95341.42;;;;
2019/04/13 00:49:26;;;;;;;26.75;19.35;;;;;;;4.25;55.07422;95341.42;;;;
2019/04/13 00:50:27;;;;;;;26.75;19.35;;;;;;;4.25;55.07422;95341.42;;;;
2019/04/13 00:51:28;;;;;;;26.75;19.35;;;;;;;4.25;55.07422;95341.42;;;;
2019/04/13 00:52:29;;;;;;;26.75;19.35;;;;;;;4.25;55.07422;95341.42;;;;
2019/04/13 00:53:30;;;;;;;24.9;19.75;;;;;;;4.24;55.11426;95333.11;;;;
2019/04/13 00:54:32;;;;;;;24.9;19.75;;;;;;;4.24;55.11426;95333.11;;;;
2019/04/13 00:55:33;;;;;;;24.9;19.75;;;;;;;4.24;55.11426;95333.11;;;;
2019/04/13 00:56:34;;;;;;;24.9;19.75;;;;;;;4.24;55.11426;95333.11;;;;
2019/04/13 00:57:35;;;;;;;24.9;19.75;;;;;;;4.24;55.11426;95333.11;;;;
2019/04/13 00:58:36;;;;;;;24.9;19.75;;;;;;;4.24;55.11426;95333.11;;;;
2019/04/13 00:59:37;;;;;;;24.9;19.75;;;;;;;4.24;55.11426;95333.11;;;;
2019/04/13 01:00:39;;;;;;;24.9;19.75;;;;;;;4.24;55.11426;95333.11;;;;
2019/04/13 01:01:40;;;;;;;24.9;19.75;;;;;;;4.24;55.11426;95333.11;;;;
2019/04/13 01:02:41;;;;;;;24.9;19.75;;;;;;;4.24;55.11426;95333.11;;;;
2019/04/13 01:03:42;;;;;;;24.5;19.6;;;;;;;4.14;55.27148;95327.26;;;;
2019/04/13 01:04:44;;;;;;;24.5;19.6;;;;;;;4.14;55.27148;95327.26;;;;
2019/04/13 01:05:45;;;;;;;24.5;19.6;;;;;;;4.14;55.27148;95327.26;;;;
2019/04/13 01:06:46;;;;;;;24.5;19.6;;;;;;;4.14;55.27148;95327.26;;;;
2019/04/13 01:07:48;;;;;;;24.5;19.6;;;;;;;4.14;55.27148;95327.26;;;;
2019/04/13 01:08:49;;;;;;;24.5;19.6;;;;;;;4.14;55.27148;95327.26;;;;
2019/04/13 01:09:50;;;;;;;24.5;19.6;;;;;;;4.14;55.27148;95327.26;;;;
2019/04/13 01:10:52;;;;;;;24.5;19.6;;;;;;;4.14;55.27148;95327.26;;;;
2019/04/13 01:11:53;;;;;;;24.5;19.6;;;;;;;4.14;55.27148;95327.26;;;;
2019/04/13 01:12:54;;;;;;;24.5;19.6;;;;;;;4.14;55.27148;95327.26;;;;
2019/04/13 01:13:55;;;;;;;24.55;19.8;;;;;;;4.11;55.44824;95335.6;;;;
2019/04/13 01:14:57;;;;;;;24.55;19.8;;;;;;;4.11;55.44824;95335.6;;;;
2019/04/13 01:15:58;;;;;;;24.55;19.8;;;;;;;4.11;55.44824;95335.6;;;;
2019/04/13 01:16:59;;;;;;;24.55;19.8;;;;;;;4.11;55.44824;95335.6;;;;
2019/04/13 01:18:00;;;;;;;24.55;19.8;;;;;;;4.11;55.44824;95335.6;;;;
2019/04/13 01:19:01;;;;;;;24.55;19.8;;;;;;;4.11;55.44824;95335.6;;;;
2019/04/13 01:20:03;;;;;;;24.55;19.8;;;;;;;4.11;55.44824;95335.6;;;;
2019/04/13 01:21:04;;;;;;;24.55;19.8;;;;;;;4.11;55.44824;95335.6;;;;
2019/04/13 01:22:05;;;;;;;24.55;19.8;;;;;;;4.11;55.44824;95335.6;;;;
2019/04/13 01:23:06;;;;;;;24.55;19.8;;;;;;;4.11;55.44824;95335.6;;;;
2019/04/13 01:24:08;;;;;;;24.55;19.8;;;;;;;4.11;55.44824;95335.6;;;;
2019/04/13 01:25:09;;;;;;;24.9;19.5;;;;;;;4.02;55.56348;95324.83;;;;
2019/04/13 01:26:10;;;;;;;24.9;19.5;;;;;;;4.02;55.56348;95324.83;;;;
2019/04/13 01:27:11;;;;;;;24.9;19.5;;;;;;;4.02;55.56348;95324.83;;;;
2019/04/13 01:28:13;;;;;;;24.9;19.5;;;;;;;4.02;55.56348;95324.83;;;;
2019/04/13 01:29:14;;;;;;;24.9;19.5;;;;;;;4.02;55.56348;95324.83;;;;
2019/04/13 01:30:15;;;;;;;24.9;19.5;;;;;;;4.02;55.56348;95324.83;;;;
2019/04/13 01:31:16;;;;;;;24.9;19.5;;;;;;;4.02;55.56348;95324.83;;;;
2019/04/13 01:32:17;;;;;;;24.9;19.5;;;;;;;4.02;55.56348;95324.83;;;;
2019/04/13 01:33:19;;;;;;;24.9;19.5;;;;;;;4.02;55.56348;95324.83;;;;
2019/04/13 01:34:20;;;;;;;24.9;19.5;;;;;;;4.02;55.56348;95324.83;;;;
2019/04/13 01:35:21;;;;;;;26.8;19.8;;;;;;;3.9;55.84375;95326.39;;;;
2019/04/13 01:36:23;;;;;;;26.8;19.8;;;;;;;3.9;55.84375;95326.39;;;;
2019/04/13 01:37:24;;;;;;;26.8;19.8;;;;;;;3.9;55.84375;95326.39;;;;
2019/04/13 01:38:25;;;;;;;26.8;19.8;;;;;;;3.9;55.84375;95326.39;;;;
2019/04/13 01:39:26;;;;;;;26.8;19.8;;;;;;;3.9;55.84375;95326.39;;;;
2019/04/13 01:40:27;;;;;;;26.8;19.8;;;;;;;3.9;55.84375;95326.39;;;;
2019/04/13 01:41:29;;;;;;;26.8;19.8;;;;;;;3.9;55.84375;95326.39;;;;
2019/04/13 01:42:30;;;;;;;26.8;19.8;;;;;;;3.9;55.84375;95326.39;;;;
2019/04/13 01:43:31;;;;;;;26.8;19.8;;;;;;;3.9;55.84375;95326.39;;;;
2019/04/13 01:44:32;;;;;;;26.8;19.8;;;;;;;3.9;55.84375;95326.39;;;;
2019/04/13 01:45:34;;;;;;;26.8;19.8;;;;;;;3.9;55.84375;95326.39;;;;
2019/04/13 01:46:35;;;;;;;24.95;19.9;;;;;;;3.81;56.03418;95315.03;;;;
2019/04/13 01:47:36;;;;;;;24.95;19.9;;;;;;;3.81;56.03418;95315.03;;;;
2019/04/13 01:48:37;;;;;;;24.95;19.9;;;;;;;3.81;56.03418;95315.03;;;;
2019/04/13 01:49:39;;;;;;;24.95;19.9;;;;;;;3.81;56.03418;95315.03;;;;
2019/04/13 01:50:40;;;;;;;24.95;19.9;;;;;;;3.81;56.03418;95315.03;;;;
2019/04/13 01:51:41;;;;;;;24.95;19.9;;;;;;;3.81;56.03418;95315.03;;;;
2019/04/13 01:52:43;;;;;;;24.95;19.9;;;;;;;3.81;56.03418;95315.03;;;;
2019/04/13 01:53:44;;;;;;;24.95;19.9;;;;;;;3.81;56.03418;95315.03;;;;
2019/04/13 01:54:45;;;;;;;24.95;19.9;;;;;;;3.81;56.03418;95315.03;;;;
2019/04/13 01:55:46;;;;;;;24.95;19.9;;;;;;;3.81;56.03418;95315.03;;;;
2019/04/13 01:56:47;;;;;;;26.15;19.9;;;;;;;3.81;56.21484;95301.68;;;;
2019/04/13 01:57:49;;;;;;;26.15;19.9;;;;;;;3.81;56.21484;95301.68;;;;
2019/04/13 01:58:50;;;;;;;26.15;19.9;;;;;;;3.81;56.21484;95301.68;;;;
2019/04/13 01:59:51;;;;;;;26.15;19.9;;;;;;;3.81;56.21484;95301.68;;;;
2019/04/13 02:01:49;;;;;;;26.15;19.9;;;;;;;3.81;56.21484;95301.68;;;;
2019/04/13 02:02:52;;;;;;;26.15;19.9;;;;;;;3.81;56.21484;95301.68;;;;
2019/04/13 02:03:57;;;;;;;26.15;19.9;;;;;;;3.81;56.21484;95301.68;;;;
2019/04/13 02:06:03;;;;;;;26.15;19.9;;;;;;;3.81;56.21484;95301.68;;;;
2019/04/13 02:08:01;;;;;;;26.15;19.9;;;;;;;3.81;56.21484;95301.68;;;;
2019/04/13 02:09:14;;;;;;;26.15;19.9;;;;;;;3.81;56.21484;95301.68;;;;
2019/04/13 02:10:18;;;;;;;26.15;19.9;;;;;;;3.81;56.21484;95301.68;;;;
2019/04/13 02:11:23;;;;;;;26.15;19.9;;;;;;;3.81;56.21484;95301.68;;;;
2019/04/13 02:12:24;;;;;;;26.15;19.9;;;;;;;3.81;56.21484;95301.68;;;;
2019/04/13 02:13:26;;;;;;;26.15;19.9;;;;;;;3.81;56.21484;95301.68;;;;
2019/04/13 02:14:27;;;;;;;26.15;19.9;;;;;;;3.81;56.21484;95301.68;;;;
2019/04/13 02:15:28;;;;;;;26.15;19.9;;;;;;;3.81;56.21484;95301.68;;;;
2019/04/13 02:16:29;;;;;;;26.15;19.9;;;;;;;3.81;56.21484;95301.68;;;;
2019/04/13 02:17:31;;;;;;;26.15;19.9;;;;;;;3.81;56.21484;95301.68;;;;
2019/04/13 02:18:32;;;;;;;26.4;20.8;;;;;;;3.84;56.39844;95300.45;;;;
2019/04/13 02:19:33;;;;;;;26.4;20.8;;;;;;;3.84;56.39844;95300.45;;;;
2019/04/13 02:20:35;;;;;;;26.4;20.8;;;;;;;3.84;56.39844;95300.45;;;;
2019/04/13 02:21:36;;;;;;;26.4;20.8;;;;;;;3.84;56.39844;95300.45;;;;
2019/04/13 02:22:38;;;;;;;26.4;20.8;;;;;;;3.84;56.39844;95300.45;;;;
2019/04/13 02:23:39;;;;;;;26.4;20.8;;;;;;;3.84;56.39844;95300.45;;;;
2019/04/13 02:24:40;;;;;;;26.4;20.8;;;;;;;3.84;56.39844;95300.45;;;;
2019/04/13 02:25:41;;;;;;;26.4;20.8;;;;;;;3.84;56.39844;95300.45;;;;
2019/04/13 02:26:43;;;;;;;26.4;20.8;;;;;;;3.84;56.39844;95300.45;;;;
2019/04/13 02:27:44;;;;;;;26.4;20.8;;;;;;;3.84;56.39844;95300.45;;;;
2019/04/13 02:28:45;;;;;;;26.25;20.05;;;;;;;3.73;56.75488;95293.3;;;;
2019/04/13 02:29:46;;;;;;;26.25;20.05;;;;;;;3.73;56.75488;95293.3;;;;
2019/04/13 02:30:47;;;;;;;26.25;20.05;;;;;;;3.73;56.75488;95293.3;;;;
2019/04/13 02:31:49;;;;;;;26.25;20.05;;;;;;;3.73;56.75488;95293.3;;;;
2019/04/13 02:32:50;;;;;;;26.25;20.05;;;;;;;3.73;56.75488;95293.3;;;;
2019/04/13 02:33:51;;;;;;;26.25;20.05;;;;;;;3.73;56.75488;95293.3;;;;
2019/04/13 02:34:53;;;;;;;26.25;20.05;;;;;;;3.73;56.75488;95293.3;;;;
2019/04/13 02:35:54;;;;;;;26.25;20.05;;;;;;;3.73;56.75488;95293.3;;;;
2019/04/13 02:36:55;;;;;;;26.25;20.05;;;;;;;3.73;56.75488;95293.3;;;;
2019/04/13 02:37:56;;;;;;;26.25;20.05;;;;;;;3.73;56.75488;95293.3;;;;
2019/04/13 02:38:58;;;;;;;24.95;20;;;;;;;3.78;57.0459;95295.9;;;;
2019/04/13 02:39:59;;;;;;;24.95;20;;;;;;;3.78;57.0459;95295.9;;;;
2019/04/13 02:41:00;;;;;;;24.95;20;;;;;;;3.78;57.0459;95295.9;;;;
2019/04/13 02:42:01;;;;;;;24.95;20;;;;;;;3.78;57.0459;95295.9;;;;
2019/04/13 02:43:03;;;;;;;24.95;20;;;;;;;3.78;57.0459;95295.9;;;;
2019/04/13 02:44:04;;;;;;;24.95;20;;;;;;;3.78;57.0459;95295.9;;;;
2019/04/13 02:45:05;;;;;;;24.95;20;;;;;;;3.78;57.0459;95295.9;;;;
2019/04/13 02:46:06;;;;;;;24.95;20;;;;;;;3.78;57.0459;95295.9;;;;
2019/04/13 02:47:07;;;;;;;24.95;20;;;;;;;3.78;57.0459;95295.9;;;;
2019/04/13 02:48:09;;;;;;;24.95;20;;;;;;;3.78;57.0459;95295.9;;;;
2019/04/13 02:49:10;;;;;;;24.95;20;;;;;;;3.78;57.0459;95295.9;;;;
2019/04/13 02:50:11;;;;;;;27.45;20.8;;;;;;;3.71;57.13281;95283.4;;;;
2019/04/13 02:51:12;;;;;;;27.45;20.8;;;;;;;3.71;57.13281;95283.4;;;;
2019/04/13 02:52:13;;;;;;;27.45;20.8;;;;;;;3.71;57.13281;95283.4;;;;
2019/04/13 02:53:15;;;;;;;27.45;20.8;;;;;;;3.71;57.13281;95283.4;;;;
2019/04/13 02:54:16;;;;;;;27.45;20.8;;;;;;;3.71;57.13281;95283.4;;;;
2019/04/13 02:55:17;;;;;;;27.45;20.8;;;;;;;3.71;57.13281;95283.4;;;;
2019/04/13 02:56:18;;;;;;;27.45;20.8;;;;;;;3.71;57.13281;95283.4;;;;
2019/04/13 02:57:19;;;;;;;27.45;20.8;;;;;;;3.71;57.13281;95283.4;;;;
2019/04/13 02:58:20;;;;;;;27.45;20.8;;;;;;;3.71;57.13281;95283.4;;;;
2019/04/13 02:59:22;;;;;;;27.45;20.8;;;;;;;3.71;57.13281;95283.4;;;;
2019/04/13 03:00:23;;;;;;;25.35;19.6;;;;;;;3.64;57.36719;95272.27;;;;
2019/04/13 03:01:24;;;;;;;25.35;19.6;;;;;;;3.64;57.36719;95272.27;;;;
2019/04/13 03:02:25;;;;;;;25.35;19.6;;;;;;;3.64;57.36719;95272.27;;;;
2019/04/13 03:03:26;;;;;;;25.35;19.6;;;;;;;3.64;57.36719;95272.27;;;;
2019/04/13 03:04:27;;;;;;;25.35;19.6;;;;;;;3.64;57.36719;95272.27;;;;
2019/04/13 03:05:29;;;;;;;25.35;19.6;;;;;;;3.64;57.36719;95272.27;;;;
2019/04/13 03:06:30;;;;;;;25.35;19.6;;;;;;;3.64;57.36719;95272.27;;;;
2019/04/13 03:07:31;;;;;;;25.35;19.6;;;;;;;3.64;57.36719;95272.27;;;;
2019/04/13 03:08:32;;;;;;;25.35;19.6;;;;;;;3.64;57.36719;95272.27;;;;
2019/04/13 03:09:33;;;;;;;25.35;19.6;;;;;;;3.64;57.36719;95272.27;;;;
2019/04/13 03:10:35;;;;;;;25.35;19.6;;;;;;;3.64;57.36719;95272.27;;;;
2019/04/13 03:11:36;;;;;;;26.4;20.35;;;;;;;3.59;57.69922;95268.03;;;;
2019/04/13 03:12:37;;;;;;;26.4;20.35;;;;;;;3.59;57.69922;95268.03;;;;
2019/04/13 03:13:38;;;;;;;26.4;20.35;;;;;;;3.59;57.69922;95268.03;;;;
2019/04/13 03:14:39;;;;;;;26.4;20.35;;;;;;;3.59;57.69922;95268.03;;;;
2019/04/13 03:15:57;;;;;;;26.4;20.35;;;;;;;3.59;57.69922;95268.03;;;;
2019/04/13 03:17:09;;;;;;;26.4;20.35;;;;;;;3.59;57.69922;95268.03;;;;
2019/04/13 03:18:16;;;;;;;26.4;20.35;;;;;;;3.59;57.69922;95268.03;;;;
2019/04/13 03:19:36;;;;;;;26.4;20.35;;;;;;;3.59;57.69922;95268.03;;;;
2019/04/13 03:20:37;;;;;;;26.4;20.35;;;;;;;3.59;57.69922;95268.03;;;;
2019/04/13 03:21:38;;;;;;;27.85;21.1;;;;;;;3.62;57.95605;95257.87;;;;
2019/04/13 03:22:39;;;;;;;27.85;21.1;;;;;;;3.62;57.95605;95257.87;;;;
2019/04/13 03:23:41;;;;;;;27.85;21.1;;;;;;;3.62;57.95605;95257.87;;;;
2019/04/13 03:24:42;;;;;;;27.85;21.1;;;;;;;3.62;57.95605;95257.87;;;;
2019/04/13 03:25:43;;;;;;;27.85;21.1;;;;;;;3.62;57.95605;95257.87;;;;
2019/04/13 03:26:44;;;;;;;27.85;21.1;;;;;;;3.62;57.95605;95257.87;;;;
2019/04/13 03:27:45;;;;;;;27.85;21.1;;;;;;;3.62;57.95605;95257.87;;;;
2019/04/13 03:28:47;;;;;;;27.85;21.1;;;;;;;3.62;57.95605;95257.87;;;;
2019/04/13 03:29:48;;;;;;;27.85;21.1;;;;;;;3.62;57.95605;95257.87;;;;
2019/04/13 03:30:49;;;;;;;27.85;21.1;;;;;;;3.62;57.95605;95257.87;;;;
2019/04/13 03:31:50;;;;;;;27.25;20.6;;;;;;;3.57;57.98145;95258.47;;;;
2019/04/13 03:32:51;;;;;;;27.25;20.6;;;;;;;3.57;57.98145;95258.47;;;;
2019/04/13 03:33:53;;;;;;;27.25;20.6;;;;;;;3.57;57.98145;95258.47;;;;
2019/04/13 03:34:54;;;;;;;27.25;20.6;;;;;;;3.57;57.98145;95258.47;;;;
2019/04/13 03:35:55;;;;;;;27.25;20.6;;;;;;;3.57;57.98145;95258.47;;;;
2019/04/13 03:36:56;;;;;;;27.25;20.6;;;;;;;3.57;57.98145;95258.47;;;;
2019/04/13 03:37:57;;;;;;;27.25;20.6;;;;;;;3.57;57.98145;95258.47;;;;
2019/04/13 03:38:59;;;;;;;27.25;20.6;;;;;;;3.57;57.98145;95258.47;;;;
2019/04/13 03:40:00;;;;;;;27.25;20.6;;;;;;;3.57;57.98145;95258.47;;;;
2019/04/13 03:41:01;;;;;;;27.25;20.6;;;;;;;3.57;57.98145;95258.47;;;;
2019/04/13 03:42:02;;;;;;;27.25;20.6;;;;;;;3.57;57.98145;95258.47;;;;
2019/04/13 03:43:03;;;;;;;27.45;20.95;;;;;;;3.61;58.08301;95255.74;;;;
2019/04/13 03:44:04;;;;;;;27.45;20.95;;;;;;;3.61;58.08301;95255.74;;;;
2019/04/13 03:45:05;;;;;;;27.45;20.95;;;;;;;3.61;58.08301;95255.74;;;;
2019/04/13 03:46:07;;;;;;;27.45;20.95;;;;;;;3.61;58.08301;95255.74;;;;
2019/04/13 03:47:08;;;;;;;27.45;20.95;;;;;;;3.61;58.08301;95255.74;;;;
2019/04/13 03:48:09;;;;;;;27.45;20.95;;;;;;;3.61;58.08301;95255.74;;;;
2019/04/13 03:49:10;;;;;;;27.45;20.95;;;;;;;3.61;58.08301;95255.74;;;;
2019/04/13 03:50:11;;;;;;;27.45;20.95;;;;;;;3.61;58.08301;95255.74;;;;
2019/04/13 03:51:12;;;;;;;27.45;20.95;;;;;;;3.61;58.08301;95255.74;;;;
2019/04/13 03:52:14;;;;;;;27.45;20.95;;;;;;;3.61;58.08301;95255.74;;;;
2019/04/13 03:53:15;;;;;;;26.15;20.35;;;;;;;3.57;58.11816;95256.72;;;;
2019/04/13 03:54:16;;;;;;;26.15;20.35;;;;;;;3.57;58.11816;95256.72;;;;
2019/04/13 03:55:17;;;;;;;26.15;20.35;;;;;;;3.57;58.11816;95256.72;;;;
2019/04/13 03:56:18;;;;;;;26.15;20.35;;;;;;;3.57;58.11816;95256.72;;;;
2019/04/13 03:57:19;;;;;;;26.15;20.35;;;;;;;3.57;58.11816;95256.72;;;;
2019/04/13 03:58:21;;;;;;;26.15;20.35;;;;;;;3.57;58.11816;95256.72;;;;
2019/04/13 03:59:22;;;;;;;26.15;20.35;;;;;;;3.57;58.11816;95256.72;;;;
2019/04/13 04:00:23;;;;;;;26.15;20.35;;;;;;;3.57;58.11816;95256.72;;;;
2019/04/13 04:01:24;;;;;;;26.15;20.35;;;;;;;3.57;58.11816;95256.72;;;;
2019/04/13 04:02:25;;;;;;;26.15;20.35;;;;;;;3.57;58.11816;95256.72;;;;
2019/04/13 04:03:27;;;;;;;26.15;20.35;;;;;;;3.57;58.11816;95256.72;;;;
2019/04/13 04:04:28;;;;;;;29.45;21.7;;;;;;;3.53;58.40039;95256.28;;;;
2019/04/13 04:05:29;;;;;;;29.45;21.7;;;;;;;3.53;58.40039;95256.28;;;;
2019/04/13 04:06:30;;;;;;;29.45;21.7;;;;;;;3.53;58.40039;95256.28;;;;
2019/04/13 04:07:31;;;;;;;29.45;21.7;;;;;;;3.53;58.40039;95256.28;;;;
2019/04/13 04:08:32;;;;;;;29.45;21.7;;;;;;;3.53;58.40039;95256.28;;;;
2019/04/13 04:09:34;;;;;;;29.45;21.7;;;;;;;3.53;58.40039;95256.28;;;;
2019/04/13 04:10:35;;;;;;;29.45;21.7;;;;;;;3.53;58.40039;95256.28;;;;
2019/04/13 04:11:36;;;;;;;29.45;21.7;;;;;;;3.53;58.40039;95256.28;;;;
2019/04/13 04:12:37;;;;;;;29.45;21.7;;;;;;;3.53;58.40039;95256.28;;;;
2019/04/13 04:13:38;;;;;;;29.45;21.7;;;;;;;3.53;58.40039;95256.28;;;;
2019/04/13 04:14:39;;;;;;;28.75;21.55;;;;;;;3.56;58.5625;95249.2;;;;
2019/04/13 04:15:41;;;;;;;28.75;21.55;;;;;;;3.56;58.5625;95249.2;;;;
2019/04/13 04:16:43;;;;;;;28.75;21.55;;;;;;;3.56;58.5625;95249.2;;;;
2019/04/13 04:17:45;;;;;;;28.75;21.55;;;;;;;3.56;58.5625;95249.2;;;;
2019/04/13 04:18:46;;;;;;;28.75;21.55;;;;;;;3.56;58.5625;95249.2;;;;
2019/04/13 04:19:47;;;;;;;28.75;21.55;;;;;;;3.56;58.5625;95249.2;;;;
2019/04/13 04:20:48;;;;;;;28.75;21.55;;;;;;;3.56;58.5625;95249.2;;;;
2019/04/13 04:21:49;;;;;;;28.75;21.55;;;;;;;3.56;58.5625;95249.2;;;;
2019/04/13 04:22:51;;;;;;;28.75;21.55;;;;;;;3.56;58.5625;95249.2;;;;
2019/04/13 04:23:52;;;;;;;28.75;21.55;;;;;;;3.56;58.5625;95249.2;;;;
2019/04/13 04:24:53;;;;;;;30.1;21.5;;;;;;;3.5;58.87109;95252.67;;;;
2019/04/13 04:25:54;;;;;;;30.1;21.5;;;;;;;3.5;58.87109;95252.67;;;;
2019/04/13 04:26:55;;;;;;;30.1;21.5;;;;;;;3.5;58.87109;95252.67;;;;
2019/04/13 04:27:56;;;;;;;30.1;21.5;;;;;;;3.5;58.87109;95252.67;;;;
2019/04/13 04:28:58;;;;;;;30.1;21.5;;;;;;;3.5;58.87109;95252.67;;;;
2019/04/13 04:29:59;;;;;;;30.1;21.5;;;;;;;3.5;58.87109;95252.67;;;;
2019/04/13 04:31:00;;;;;;;30.1;21.5;;;;;;;3.5;58.87109;95252.67;;;;
2019/04/13 04:32:01;;;;;;;30.1;21.5;;;;;;;3.5;58.87109;95252.67;;;;
2019/04/13 04:33:02;;;;;;;30.1;21.5;;;;;;;3.5;58.87109;95252.67;;;;
2019/04/13 04:34:04;;;;;;;30.1;21.5;;;;;;;3.5;58.87109;95252.67;;;;
2019/04/13 04:35:05;;;;;;;30.1;21.5;;;;;;;3.5;58.87109;95252.67;;;;
2019/04/13 04:36:06;;;;;;;29.9;23.05;;;;;;;3.49;58.96484;95246.2;;;;
2019/04/13 04:37:07;;;;;;;29.9;23.05;;;;;;;3.49;58.96484;95246.2;;;;
2019/04/13 04:38:08;;;;;;;29.9;23.05;;;;;;;3.49;58.96484;95246.2;;;;
2019/04/13 04:39:10;;;;;;;29.9;23.05;;;;;;;3.49;58.96484;95246.2;;;;
2019/04/13 04:40:11;;;;;;;29.9;23.05;;;;;;;3.49;58.96484;95246.2;;;;
2019/04/13 04:41:12;;;;;;;29.9;23.05;;;;;;;3.49;58.96484;95246.2;;;;
2019/04/13 04:42:13;;;;;;;29.9;23.05;;;;;;;3.49;58.96484;95246.2;;;;
2019/04/13 04:43:14;;;;;;;29.9;23.05;;;;;;;3.49;58.96484;95246.2;;;;
2019/04/13 04:44:15;;;;;;;29.9;23.05;;;;;;;3.49;58.96484;95246.2;;;;
2019/04/13 04:45:16;;;;;;;29.9;23.05;;;;;;;3.49;58.96484;95246.2;;;;
2019/04/13 04:46:18;;;;;;;29.9;23.05;;;;;;;3.49;58.96484;95246.2;;;;
2019/04/13 04:47:19;;;;;;;29.9;23.05;;;;;;;3.49;58.96484;95246.2;;;;
2019/04/13 04:48:20;;;;;;;29.9;23.05;;;;;;;3.49;58.96484;95246.2;;;;
2019/04/13 04:49:21;;;;;;;29.9;23.05;;;;;;;3.49;58.96484;95246.2;;;;
2019/04/13 04:50:22;;;;;;;29.9;23.05;;;;;;;3.49;58.96484;95246.2;;;;
2019/04/13 04:51:24;;;;;;;29.9;23.05;;;;;;;3.49;58.96484;95246.2;;;;
2019/04/13 04:52:25;;;;;;;29.9;23.05;;;;;;;3.49;58.96484;95246.2;;;;
2019/04/13 04:53:26;;;;;;;29.9;23.05;;;;;;;3.49;58.96484;95246.2;;;;
2019/04/13 04:54:27;;;;;;;29.9;23.05;;;;;;;3.49;58.96484;95246.2;;;;
2019/04/13 04:55:28;;;;;;;29.9;23.05;;;;;;;3.49;58.96484;95246.2;;;;
2019/04/13 04:56:29;;;;;;;28.09999;21.35;;;;;;;3.45;59.44434;95256.52;;;;
2019/04/13 04:57:31;;;;;;;28.09999;21.35;;;;;;;3.45;59.44434;95256.52;;;;
2019/04/13 04:58:32;;;;;;;28.09999;21.35;;;;;;;3.45;59.44434;95256.52;;;;
2019/04/13 04:59:33;;;;;;;28.09999;21.35;;;;;;;3.45;59.44434;95256.52;;;;
2019/04/13 05:00:34;;;;;;;28.09999;21.35;;;;;;;3.45;59.44434;95256.52;;;;
2019/04/13 05:01:35;;;;;;;28.09999;21.35;;;;;;;3.45;59.44434;95256.52;;;;
2019/04/13 05:02:36;;;;;;;28.09999;21.35;;;;;;;3.45;59.44434;95256.52;;;;
2019/04/13 05:03:38;;;;;;;28.09999;21.35;;;;;;;3.45;59.44434;95256.52;;;;
2019/04/13 05:04:39;;;;;;;28.09999;21.35;;;;;;;3.45;59.44434;95256.52;;;;
2019/04/13 05:05:40;;;;;;;28.09999;21.35;;;;;;;3.45;59.44434;95256.52;;;;
2019/04/13 05:06:41;;;;;;;28.09999;21.35;;;;;;;3.45;59.44434;95256.52;;;;
2019/04/13 05:07:42;;;;;;;27.9;20.75;;;;;;;3.46;59.55176;95262.58;;;;
2019/04/13 05:08:44;;;;;;;27.9;20.75;;;;;;;3.46;59.55176;95262.58;;;;
2019/04/13 05:09:45;;;;;;;27.9;20.75;;;;;;;3.46;59.55176;95262.58;;;;
2019/04/13 05:10:46;;;;;;;27.9;20.75;;;;;;;3.46;59.55176;95262.58;;;;
2019/04/13 05:11:47;;;;;;;27.9;20.75;;;;;;;3.46;59.55176;95262.58;;;;
2019/04/13 05:12:48;;;;;;;27.9;20.75;;;;;;;3.46;59.55176;95262.58;;;;
2019/04/13 05:13:49;;;;;;;27.9;20.75;;;;;;;3.46;59.55176;95262.58;;;;
2019/04/13 05:14:50;;;;;;;27.9;20.75;;;;;;;3.46;59.55176;95262.58;;;;
2019/04/13 05:15:52;;;;;;;27.9;20.75;;;;;;;3.46;59.55176;95262.58;;;;
2019/04/13 05:16:53;;;;;;;27.9;20.75;;;;;;;3.46;59.55176;95262.58;;;;
2019/04/13 05:17:54;;;;;;;30.45;22.1;;;;;;;3.52;60.00488;95258.73;;;;
2019/04/13 05:18:55;;;;;;;30.45;22.1;;;;;;;3.52;60.00488;95258.73;;;;
2019/04/13 05:19:56;;;;;;;30.45;22.1;;;;;;;3.52;60.00488;95258.73;;;;
2019/04/13 05:20:57;;;;;;;30.45;22.1;;;;;;;3.52;60.00488;95258.73;;;;
2019/04/13 05:21:59;;;;;;;30.45;22.1;;;;;;;3.52;60.00488;95258.73;;;;
2019/04/13 05:23:00;;;;;;;30.45;22.1;;;;;;;3.52;60.00488;95258.73;;;;
2019/04/13 05:24:01;;;;;;;30.45;22.1;;;;;;;3.52;60.00488;95258.73;;;;
2019/04/13 05:25:02;;;;;;;30.45;22.1;;;;;;;3.52;60.00488;95258.73;;;;
2019/04/13 05:26:03;;;;;;;30.45;22.1;;;;;;;3.52;60.00488;95258.73;;;;
2019/04/13 05:27:05;;;;;;;30.45;22.1;;;;;;;3.52;60.00488;95258.73;;;;
2019/04/13 05:28:06;;;;;;;30.45;22.1;;;;;;;3.52;60.00488;95258.73;;;;
2019/04/13 05:29:07;;;;;;;29.6;22.4;;;;;;;3.61;60.20801;95264.15;;;;
2019/04/13 05:30:08;;;;;;;29.6;22.4;;;;;;;3.61;60.20801;95264.15;;;;
2019/04/13 05:31:09;;;;;;;29.6;22.4;;;;;;;3.61;60.20801;95264.15;;;;
2019/04/13 05:32:10;;;;;;;29.6;22.4;;;;;;;3.61;60.20801;95264.15;;;;
2019/04/13 05:33:12;;;;;;;29.6;22.4;;;;;;;3.61;60.20801;95264.15;;;;
2019/04/13 05:34:13;;;;;;;29.6;22.4;;;;;;;3.61;60.20801;95264.15;;;;
2019/04/13 05:35:14;;;;;;;29.6;22.4;;;;;;;3.61;60.20801;95264.15;;;;
2019/04/13 05:36:15;;;;;;;29.6;22.4;;;;;;;3.61;60.20801;95264.15;;;;
2019/04/13 05:37:16;;;;;;;29.6;22.4;;;;;;;3.61;60.20801;95264.15;;;;
2019/04/13 05:38:17;;;;;;;29.6;22.4;;;;;;;3.61;60.20801;95264.15;;;;
2019/04/13 05:39:19;;;;;;;29.6;22.4;;;;;;;3.61;60.20801;95264.15;;;;
2019/04/13 05:40:20;;;;;;;29.6;22.4;;;;;;;3.61;60.20801;95264.15;;;;
2019/04/13 05:41:21;;;;;;;29.6;22.4;;;;;;;3.61;60.20801;95264.15;;;;
2019/04/13 05:42:22;;;;;;;29.6;22.4;;;;;;;3.61;60.20801;95264.15;;;;
2019/04/13 05:43:24;;;;;;;29.6;22.4;;;;;;;3.61;60.20801;95264.15;;;;
2019/04/13 05:44:25;;;;;;;29.6;22.4;;;;;;;3.61;60.20801;95264.15;;;;
2019/04/13 05:45:26;;;;;;;29.6;22.4;;;;;;;3.61;60.20801;95264.15;;;;
2019/04/13 05:46:27;;;;;;;29.6;22.4;;;;;;;3.61;60.20801;95264.15;;;;
2019/04/13 05:47:28;;;;;;;29.6;22.4;;;;;;;3.61;60.20801;95264.15;;;;
2019/04/13 05:48:29;;;;;;;29.6;22.4;;;;;;;3.61;60.20801;95264.15;;;;
2019/04/13 05:49:31;;;;;;;31.55;23.05;;;;;;;4.09;59.94727;95290.88;;;;
2019/04/13 05:50:32;;;;;;;31.55;23.05;;;;;;;4.09;59.94727;95290.88;;;;
2019/04/13 05:51:33;;;;;;;31.55;23.05;;;;;;;4.09;59.94727;95290.88;;;;
2019/04/13 05:52:34;;;;;;;31.55;23.05;;;;;;;4.09;59.94727;95290.88;;;;
2019/04/13 05:53:36;;;;;;;31.55;23.05;;;;;;;4.09;59.94727;95290.88;;;;